Macon, Georgia
Current Conditions -  °F | °C
As of 4:53 AM on Thursday 27 Nov 2014 (Local Time) from KMCN Reporting Station
Clear Clear  
Wind Chill: 36°   Ceiling: Unl
Heat Index: 41°   Visibility: 10mi
Dew Point: 32°   Wind: 7mph
Humidity: 70%   Direction: 270°W
Pressure: 30.16"   Gusts: NA
Location:  32.84°N, 83.64°W
Report Text: KMCN 270953Z AUTO 27006KT 10SM CLR 05/00 A3016 RMK AO2 SLP210 T00500000 TSNO
Loading
Personal Weather Stations






























Interactive Weather Map New forecast layout! Learn more

10-Day Weather Forecast

Advertisements
Track Severe Weather on mobile